sensor_id;sensor_type;location;lat;lon;timestamp;temperature;humidity
44229;DHT22;29904;51.058;5.378;2024-02-15T00:01:30;12.10;99.90
44229;DHT22;29904;51.058;5.378;2024-02-15T00:03:56;12.20;99.90
44229;DHT22;29904;51.058;5.378;2024-02-15T00:06:22;12.20;99.90
44229;DHT22;29904;51.058;5.378;2024-02-15T00:08:48;12.10;99.90
44229;DHT22;29904;51.058;5.378;2024-02-15T00:11:13;12.20;99.90
44229;DHT22;29904;51.058;5.378;2024-02-15T00:13:39;12.20;99.90
44229;DHT22;29904;51.058;5.378;2024-02-15T00:16:04;12.20;99.90
44229;DHT22;29904;51.058;5.378;2024-02-15T00:18:31;12.20;99.90
44229;DHT22;29904;51.058;5.378;2024-02-15T00:20:57;12.20;99.90
44229;DHT22;29904;51.058;5.378;2024-02-15T00:23:22;12.20;99.90
44229;DHT22;29904;51.058;5.378;2024-02-15T00:25:48;12.20;99.90
44229;DHT22;29904;51.058;5.378;2024-02-15T00:28:15;12.20;99.90
44229;DHT22;29904;51.058;5.378;2024-02-15T00:30:40;12.20;99.90
44229;DHT22;29904;51.058;5.378;2024-02-15T00:33:06;12.20;99.90
44229;DHT22;29904;51.058;5.378;2024-02-15T00:35:32;12.20;99.90
44229;DHT22;29904;51.058;5.378;2024-02-15T00:37:58;12.20;99.90
44229;DHT22;29904;51.058;5.378;2024-02-15T00:40:23;12.20;99.90
44229;DHT22;29904;51.058;5.378;2024-02-15T00:42:49;12.20;99.90
44229;DHT22;29904;51.058;5.378;2024-02-15T00:45:15;12.20;99.90
44229;DHT22;29904;51.058;5.378;2024-02-15T00:47:40;12.20;99.90
44229;DHT22;29904;51.058;5.378;2024-02-15T00:50:08;12.20;99.90
44229;DHT22;29904;51.058;5.378;2024-02-15T00:52:33;12.20;99.90
44229;DHT22;29904;51.058;5.378;2024-02-15T00:54:59;12.20;99.90
44229;DHT22;29904;51.058;5.378;2024-02-15T00:57:25;12.20;99.90
44229;DHT22;29904;51.058;5.378;2024-02-15T00:59:50;12.10;99.90
44229;DHT22;29904;51.058;5.378;2024-02-15T01:02:17;12.10;99.90
44229;DHT22;29904;51.058;5.378;2024-02-15T01:04:43;12.10;99.90
44229;DHT22;29904;51.058;5.378;2024-02-15T01:07:10;12.10;99.90
44229;DHT22;29904;51.058;5.378;2024-02-15T01:09:36;12.10;99.90
44229;DHT22;29904;51.058;5.378;2024-02-15T01:12:01;12.10;99.90
44229;DHT22;29904;51.058;5.378;2024-02-15T01:14:29;12.10;99.90
44229;DHT22;29904;51.058;5.378;2024-02-15T01:16:56;12.10;99.90
44229;DHT22;29904;51.058;5.378;2024-02-15T01:19:21;12.10;99.90
44229;DHT22;29904;51.058;5.378;2024-02-15T01:21:47;12.10;99.90
44229;DHT22;29904;51.058;5.378;2024-02-15T01:24:12;12.10;99.90
44229;DHT22;29904;51.058;5.378;2024-02-15T01:26:38;12.10;99.90
44229;DHT22;29904;51.058;5.378;2024-02-15T01:29:03;12.10;99.90
44229;DHT22;29904;51.058;5.378;2024-02-15T01:31:29;12.10;99.90
44229;DHT22;29904;51.058;5.378;2024-02-15T01:33:55;12.10;99.90
44229;DHT22;29904;51.058;5.378;2024-02-15T01:36:20;12.10;99.90
44229;DHT22;29904;51.058;5.378;2024-02-15T01:38:46;12.10;99.90
44229;DHT22;29904;51.058;5.378;2024-02-15T01:41:12;12.10;99.90
44229;DHT22;29904;51.058;5.378;2024-02-15T01:43:37;12.10;99.90
44229;DHT22;29904;51.058;5.378;2024-02-15T01:46:06;12.10;99.90
44229;DHT22;29904;51.058;5.378;2024-02-15T01:48:32;12.10;99.90
44229;DHT22;29904;51.058;5.378;2024-02-15T01:50:58;12.10;99.90
44229;DHT22;29904;51.058;5.378;2024-02-15T01:53:24;12.10;99.90
44229;DHT22;29904;51.058;5.378;2024-02-15T01:55:52;12.10;99.90
44229;DHT22;29904;51.058;5.378;2024-02-15T01:58:18;12.10;99.90
44229;DHT22;29904;51.058;5.378;2024-02-15T02:00:44;12.20;99.90
44229;DHT22;29904;51.058;5.378;2024-02-15T02:03:10;12.10;99.90
44229;DHT22;29904;51.058;5.378;2024-02-15T02:05:35;12.10;99.90
44229;DHT22;29904;51.058;5.378;2024-02-15T02:08:01;12.20;99.90
44229;DHT22;29904;51.058;5.378;2024-02-15T02:10:29;12.10;99.90
44229;DHT22;29904;51.058;5.378;2024-02-15T02:12:59;12.10;99.90
44229;DHT22;29904;51.058;5.378;2024-02-15T02:15:24;12.00;99.90
44229;DHT22;29904;51.058;5.378;2024-02-15T02:17:50;12.00;99.90
44229;DHT22;29904;51.058;5.378;2024-02-15T02:20:18;11.90;99.90
44229;DHT22;29904;51.058;5.378;2024-02-15T02:22:48;11.90;99.90
44229;DHT22;29904;51.058;5.378;2024-02-15T02:25:16;11.90;99.90
44229;DHT22;29904;51.058;5.378;2024-02-15T02:27:41;11.80;99.90
44229;DHT22;29904;51.058;5.378;2024-02-15T02:30:12;11.80;99.90
44229;DHT22;29904;51.058;5.378;2024-02-15T02:32:43;11.70;99.90
44229;DHT22;29904;51.058;5.378;2024-02-15T02:35:09;11.70;99.90
44229;DHT22;29904;51.058;5.378;2024-02-15T02:37:37;11.80;99.90
44229;DHT22;29904;51.058;5.378;2024-02-15T02:40:05;11.80;99.90
44229;DHT22;29904;51.058;5.378;2024-02-15T02:42:46;11.80;99.90
44229;DHT22;29904;51.058;5.378;2024-02-15T02:45:11;11.90;99.90
44229;DHT22;29904;51.058;5.378;2024-02-15T02:47:37;11.90;99.90
44229;DHT22;29904;51.058;5.378;2024-02-15T02:50:02;11.90;99.90
44229;DHT22;29904;51.058;5.378;2024-02-15T02:52:28;12.00;99.90
44229;DHT22;29904;51.058;5.378;2024-02-15T02:54:54;12.10;99.90
44229;DHT22;29904;51.058;5.378;2024-02-15T02:57:19;12.10;99.90
44229;DHT22;29904;51.058;5.378;2024-02-15T02:59:45;12.10;99.90
44229;DHT22;29904;51.058;5.378;2024-02-15T03:02:11;12.20;99.90
44229;DHT22;29904;51.058;5.378;2024-02-15T03:04:38;12.20;99.90
44229;DHT22;29904;51.058;5.378;2024-02-15T03:07:05;12.20;99.90
44229;DHT22;29904;51.058;5.378;2024-02-15T03:09:30;12.20;99.90
44229;DHT22;29904;51.058;5.378;2024-02-15T03:11:56;12.20;99.90
44229;DHT22;29904;51.058;5.378;2024-02-15T03:14:22;12.20;99.90
44229;DHT22;29904;51.058;5.378;2024-02-15T03:16:48;12.20;99.90
44229;DHT22;29904;51.058;5.378;2024-02-15T03:19:13;12.20;99.90
44229;DHT22;29904;51.058;5.378;2024-02-15T03:21:39;12.20;99.90
44229;DHT22;29904;51.058;5.378;2024-02-15T03:24:05;12.20;99.90
44229;DHT22;29904;51.058;5.378;2024-02-15T03:26:31;12.20;99.90
44229;DHT22;29904;51.058;5.378;2024-02-15T03:29:01;12.20;99.90
44229;DHT22;29904;51.058;5.378;2024-02-15T03:31:27;12.20;99.90
44229;DHT22;29904;51.058;5.378;2024-02-15T03:33:53;12.20;99.90
44229;DHT22;29904;51.058;5.378;2024-02-15T03:36:19;12.20;99.90
44229;DHT22;29904;51.058;5.378;2024-02-15T03:38:46;12.20;99.90
44229;DHT22;29904;51.058;5.378;2024-02-15T03:41:12;12.30;99.90
44229;DHT22;29904;51.058;5.378;2024-02-15T03:43:38;12.30;99.90
44229;DHT22;29904;51.058;5.378;2024-02-15T03:46:04;12.30;99.90
44229;DHT22;29904;51.058;5.378;2024-02-15T03:48:29;12.30;99.90
44229;DHT22;29904;51.058;5.378;2024-02-15T03:50:57;12.30;99.90
44229;DHT22;29904;51.058;5.378;2024-02-15T03:53:23;12.30;99.90
44229;DHT22;29904;51.058;5.378;2024-02-15T03:55:49;12.20;99.90
44229;DHT22;29904;51.058;5.378;2024-02-15T03:58:18;12.20;99.90
44229;DHT22;29904;51.058;5.378;2024-02-15T04:00:45;12.20;99.90
44229;DHT22;29904;51.058;5.378;2024-02-15T04:03:10;12.10;99.90
44229;DHT22;29904;51.058;5.378;2024-02-15T04:05:36;12.00;99.90
44229;DHT22;29904;51.058;5.378;2024-02-15T04:08:01;12.00;99.90
44229;DHT22;29904;51.058;5.378;2024-02-15T04:10:27;12.00;99.90
44229;DHT22;29904;51.058;5.378;2024-02-15T04:12:53;11.90;99.90
44229;DHT22;29904;51.058;5.378;2024-02-15T04:15:18;11.90;99.90
44229;DHT22;29904;51.058;5.378;2024-02-15T04:17:44;11.90;99.90
44229;DHT22;29904;51.058;5.378;2024-02-15T04:20:10;11.90;99.90
44229;DHT22;29904;51.058;5.378;2024-02-15T04:22:37;11.90;99.90
44229;DHT22;29904;51.058;5.378;2024-02-15T04:25:06;11.90;99.90
44229;DHT22;29904;51.058;5.378;2024-02-15T04:27:32;11.80;99.90
44229;DHT22;29904;51.058;5.378;2024-02-15T04:29:58;11.80;99.90
44229;DHT22;29904;51.058;5.378;2024-02-15T04:32:24;11.80;99.90
44229;DHT22;29904;51.058;5.378;2024-02-15T04:34:50;11.80;99.90
44229;DHT22;29904;51.058;5.378;2024-02-15T04:37:16;11.70;99.90
44229;DHT22;29904;51.058;5.378;2024-02-15T04:39:43;11.70;99.90
44229;DHT22;29904;51.058;5.378;2024-02-15T04:42:09;11.70;99.90
44229;DHT22;29904;51.058;5.378;2024-02-15T04:44:39;11.70;99.90
44229;DHT22;29904;51.058;5.378;2024-02-15T04:47:05;11.70;99.90
44229;DHT22;29904;51.058;5.378;2024-02-15T04:49:30;11.70;99.90
44229;DHT22;29904;51.058;5.378;2024-02-15T04:51:56;11.70;99.90
44229;DHT22;29904;51.058;5.378;2024-02-15T04:54:22;11.70;99.90
44229;DHT22;29904;51.058;5.378;2024-02-15T04:56:48;11.60;99.90
44229;DHT22;29904;51.058;5.378;2024-02-15T04:59:16;11.60;99.90
44229;DHT22;29904;51.058;5.378;2024-02-15T05:01:41;11.60;99.90
44229;DHT22;29904;51.058;5.378;2024-02-15T05:04:10;11.60;99.90
44229;DHT22;29904;51.058;5.378;2024-02-15T05:06:36;11.70;99.90
44229;DHT22;29904;51.058;5.378;2024-02-15T05:09:02;11.70;99.90
44229;DHT22;29904;51.058;5.378;2024-02-15T05:11:33;11.70;99.90
44229;DHT22;29904;51.058;5.378;2024-02-15T05:14:01;11.70;99.90
44229;DHT22;29904;51.058;5.378;2024-02-15T05:16:26;11.70;99.90
44229;DHT22;29904;51.058;5.378;2024-02-15T05:18:52;11.70;99.90
44229;DHT22;29904;51.058;5.378;2024-02-15T05:21:18;11.70;99.90
44229;DHT22;29904;51.058;5.378;2024-02-15T05:23:45;11.70;99.90
44229;DHT22;29904;51.058;5.378;2024-02-15T05:26:11;11.70;99.90
44229;DHT22;29904;51.058;5.378;2024-02-15T05:28:38;11.70;99.90
44229;DHT22;29904;51.058;5.378;2024-02-15T05:31:10;11.70;99.90
44229;DHT22;29904;51.058;5.378;2024-02-15T05:33:37;11.70;99.90
44229;DHT22;29904;51.058;5.378;2024-02-15T05:36:05;11.70;99.90
44229;DHT22;29904;51.058;5.378;2024-02-15T05:38:31;11.70;99.90
44229;DHT22;29904;51.058;5.378;2024-02-15T05:40:57;11.80;99.90
44229;DHT22;29904;51.058;5.378;2024-02-15T05:43:23;11.80;99.90
44229;DHT22;29904;51.058;5.378;2024-02-15T05:45:50;11.70;99.90
44229;DHT22;29904;51.058;5.378;2024-02-15T05:48:17;11.80;99.90
44229;DHT22;29904;51.058;5.378;2024-02-15T05:50:43;11.70;99.90
44229;DHT22;29904;51.058;5.378;2024-02-15T05:53:09;11.70;99.90
44229;DHT22;29904;51.058;5.378;2024-02-15T05:55:35;11.70;99.90
44229;DHT22;29904;51.058;5.378;2024-02-15T05:58:02;11.80;99.90
44229;DHT22;29904;51.058;5.378;2024-02-15T06:00:27;11.70;99.90
44229;DHT22;29904;51.058;5.378;2024-02-15T06:02:55;11.70;99.90
44229;DHT22;29904;51.058;5.378;2024-02-15T06:05:21;11.70;99.90
44229;DHT22;29904;51.058;5.378;2024-02-15T06:07:47;11.70;99.90
44229;DHT22;29904;51.058;5.378;2024-02-15T06:10:13;11.70;99.90
44229;DHT22;29904;51.058;5.378;2024-02-15T06:12:39;11.70;99.90
44229;DHT22;29904;51.058;5.378;2024-02-15T06:15:05;11.60;99.90
44229;DHT22;29904;51.058;5.378;2024-02-15T06:17:38;11.60;99.90
44229;DHT22;29904;51.058;5.378;2024-02-15T06:20:03;11.60;99.90
44229;DHT22;29904;51.058;5.378;2024-02-15T06:22:29;11.60;99.90
44229;DHT22;29904;51.058;5.378;2024-02-15T06:24:56;11.60;99.90
44229;DHT22;29904;51.058;5.378;2024-02-15T06:27:21;11.60;99.90
44229;DHT22;29904;51.058;5.378;2024-02-15T06:29:49;11.60;99.90
44229;DHT22;29904;51.058;5.378;2024-02-15T06:32:33;11.60;99.90
44229;DHT22;29904;51.058;5.378;2024-02-15T06:35:17;11.60;99.90
44229;DHT22;29904;51.058;5.378;2024-02-15T06:38:01;11.60;99.90
44229;DHT22;29904;51.058;5.378;2024-02-15T06:40:59;11.60;99.90
44229;DHT22;29904;51.058;5.378;2024-02-15T06:43:25;11.60;99.90
44229;DHT22;29904;51.058;5.378;2024-02-15T06:45:51;11.60;99.90
44229;DHT22;29904;51.058;5.378;2024-02-15T06:48:16;11.60;99.90
44229;DHT22;29904;51.058;5.378;2024-02-15T06:50:42;11.60;99.90
44229;DHT22;29904;51.058;5.378;2024-02-15T06:53:07;11.60;99.90
44229;DHT22;29904;51.058;5.378;2024-02-15T06:55:33;11.60;99.90
44229;DHT22;29904;51.058;5.378;2024-02-15T06:57:59;11.60;99.90
44229;DHT22;29904;51.058;5.378;2024-02-15T07:00:24;11.60;99.90
44229;DHT22;29904;51.058;5.378;2024-02-15T07:02:50;11.60;99.90
44229;DHT22;29904;51.058;5.378;2024-02-15T07:05:16;11.60;99.90
44229;DHT22;29904;51.058;5.378;2024-02-15T07:07:42;11.60;99.90
44229;DHT22;29904;51.058;5.378;2024-02-15T07:10:08;11.60;99.90
44229;DHT22;29904;51.058;5.378;2024-02-15T07:12:35;11.60;99.90
44229;DHT22;29904;51.058;5.378;2024-02-15T07:15:01;11.60;99.90
44229;DHT22;29904;51.058;5.378;2024-02-15T07:17:28;11.60;99.90
44229;DHT22;29904;51.058;5.378;2024-02-15T07:19:54;11.60;99.90
44229;DHT22;29904;51.058;5.378;2024-02-15T07:22:20;11.60;99.90
44229;DHT22;29904;51.058;5.378;2024-02-15T07:24:47;11.70;99.90
44229;DHT22;29904;51.058;5.378;2024-02-15T07:27:13;11.70;99.90
44229;DHT22;29904;51.058;5.378;2024-02-15T07:29:38;11.70;99.90
44229;DHT22;29904;51.058;5.378;2024-02-15T07:32:04;11.70;99.90
44229;DHT22;29904;51.058;5.378;2024-02-15T07:34:30;11.70;99.90
44229;DHT22;29904;51.058;5.378;2024-02-15T07:36:56;11.70;99.90
44229;DHT22;29904;51.058;5.378;2024-02-15T07:39:23;11.80;99.90
44229;DHT22;29904;51.058;5.378;2024-02-15T07:41:53;11.80;99.90
44229;DHT22;29904;51.058;5.378;2024-02-15T07:44:20;11.80;99.90
44229;DHT22;29904;51.058;5.378;2024-02-15T07:46:46;11.80;99.90
44229;DHT22;29904;51.058;5.378;2024-02-15T07:49:11;11.80;99.90
44229;DHT22;29904;51.058;5.378;2024-02-15T07:51:37;11.80;99.90
44229;DHT22;29904;51.058;5.378;2024-02-15T07:54:02;11.90;99.90
44229;DHT22;29904;51.058;5.378;2024-02-15T07:56:28;11.90;99.90
44229;DHT22;29904;51.058;5.378;2024-02-15T07:58:54;12.00;99.90
44229;DHT22;29904;51.058;5.378;2024-02-15T08:01:19;12.00;99.90
44229;DHT22;29904;51.058;5.378;2024-02-15T08:03:48;12.10;99.90
44229;DHT22;29904;51.058;5.378;2024-02-15T08:06:14;12.10;99.90
44229;DHT22;29904;51.058;5.378;2024-02-15T08:08:41;12.20;99.90
44229;DHT22;29904;51.058;5.378;2024-02-15T08:11:09;12.20;99.90
44229;DHT22;29904;51.058;5.378;2024-02-15T08:13:43;12.20;99.90
44229;DHT22;29904;51.058;5.378;2024-02-15T08:16:09;12.30;99.90
44229;DHT22;29904;51.058;5.378;2024-02-15T08:18:36;12.30;99.90
44229;DHT22;29904;51.058;5.378;2024-02-15T08:21:03;12.40;99.90
44229;DHT22;29904;51.058;5.378;2024-02-15T08:23:29;12.40;99.90
44229;DHT22;29904;51.058;5.378;2024-02-15T08:25:55;12.40;99.90
44229;DHT22;29904;51.058;5.378;2024-02-15T08:28:20;12.50;99.90
44229;DHT22;29904;51.058;5.378;2024-02-15T08:30:46;12.50;99.90
44229;DHT22;29904;51.058;5.378;2024-02-15T08:33:12;12.60;99.90
44229;DHT22;29904;51.058;5.378;2024-02-15T08:35:38;12.60;99.90
44229;DHT22;29904;51.058;5.378;2024-02-15T08:38:05;12.70;99.90
44229;DHT22;29904;51.058;5.378;2024-02-15T08:40:31;12.70;99.90
44229;DHT22;29904;51.058;5.378;2024-02-15T08:42:57;12.80;99.90
44229;DHT22;29904;51.058;5.378;2024-02-15T08:45:22;12.80;99.90
44229;DHT22;29904;51.058;5.378;2024-02-15T08:47:48;12.90;99.90
44229;DHT22;29904;51.058;5.378;2024-02-15T08:50:18;12.90;99.90
44229;DHT22;29904;51.058;5.378;2024-02-15T08:52:44;13.00;99.90
44229;DHT22;29904;51.058;5.378;2024-02-15T08:55:10;13.00;99.90
44229;DHT22;29904;51.058;5.378;2024-02-15T08:57:36;13.00;99.90
44229;DHT22;29904;51.058;5.378;2024-02-15T09:00:05;13.10;99.90
44229;DHT22;29904;51.058;5.378;2024-02-15T09:02:35;13.10;99.90
44229;DHT22;29904;51.058;5.378;2024-02-15T09:05:01;13.10;99.90
44229;DHT22;29904;51.058;5.378;2024-02-15T09:07:26;13.20;99.90
44229;DHT22;29904;51.058;5.378;2024-02-15T09:09:52;13.30;99.90
44229;DHT22;29904;51.058;5.378;2024-02-15T09:12:17;13.40;99.90
44229;DHT22;29904;51.058;5.378;2024-02-15T09:14:43;13.40;99.90
44229;DHT22;29904;51.058;5.378;2024-02-15T09:17:08;13.50;99.90
44229;DHT22;29904;51.058;5.378;2024-02-15T09:19:35;13.60;99.90
44229;DHT22;29904;51.058;5.378;2024-02-15T09:22:03;13.70;99.90
44229;DHT22;29904;51.058;5.378;2024-02-15T09:24:30;13.80;99.90
44229;DHT22;29904;51.058;5.378;2024-02-15T09:26:55;13.90;99.90
44229;DHT22;29904;51.058;5.378;2024-02-15T09:29:21;13.90;99.90
44229;DHT22;29904;51.058;5.378;2024-02-15T09:31:47;14.10;99.90
44229;DHT22;29904;51.058;5.378;2024-02-15T09:34:13;14.10;99.90
44229;DHT22;29904;51.058;5.378;2024-02-15T09:36:38;14.10;99.90
44229;DHT22;29904;51.058;5.378;2024-02-15T09:39:04;14.20;99.90
44229;DHT22;29904;51.058;5.378;2024-02-15T09:41:30;14.30;99.90
44229;DHT22;29904;51.058;5.378;2024-02-15T09:43:55;14.40;99.90
44229;DHT22;29904;51.058;5.378;2024-02-15T09:46:21;14.40;99.90
44229;DHT22;29904;51.058;5.378;2024-02-15T09:48:47;14.40;99.90
44229;DHT22;29904;51.058;5.378;2024-02-15T09:51:15;14.30;99.90
44229;DHT22;29904;51.058;5.378;2024-02-15T09:53:41;14.30;99.90
44229;DHT22;29904;51.058;5.378;2024-02-15T09:56:07;14.30;99.90
44229;DHT22;29904;51.058;5.378;2024-02-15T09:58:33;14.30;99.90
44229;DHT22;29904;51.058;5.378;2024-02-15T10:01:03;14.40;99.90
44229;DHT22;29904;51.058;5.378;2024-02-15T10:03:31;14.40;99.90
44229;DHT22;29904;51.058;5.378;2024-02-15T10:05:57;14.40;99.90
44229;DHT22;29904;51.058;5.378;2024-02-15T10:08:23;14.50;99.90
44229;DHT22;29904;51.058;5.378;2024-02-15T10:11:06;14.60;99.90
44229;DHT22;29904;51.058;5.378;2024-02-15T10:13:33;14.70;99.90
44229;DHT22;29904;51.058;5.378;2024-02-15T10:15:59;14.80;99.90
44229;DHT22;29904;51.058;5.378;2024-02-15T10:18:25;14.80;99.90
44229;DHT22;29904;51.058;5.378;2024-02-15T10:20:57;15.00;99.90
44229;DHT22;29904;51.058;5.378;2024-02-15T10:23:22;15.10;99.90
44229;DHT22;29904;51.058;5.378;2024-02-15T10:25:48;15.20;99.90
44229;DHT22;29904;51.058;5.378;2024-02-15T10:28:14;15.30;99.90
44229;DHT22;29904;51.058;5.378;2024-02-15T10:30:45;15.40;99.90
44229;DHT22;29904;51.058;5.378;2024-02-15T10:33:20;15.50;99.90
44229;DHT22;29904;51.058;5.378;2024-02-15T10:35:52;15.50;99.90
44229;DHT22;29904;51.058;5.378;2024-02-15T10:38:29;15.70;99.90
44229;DHT22;29904;51.058;5.378;2024-02-15T10:41:02;15.70;99.90
44229;DHT22;29904;51.058;5.378;2024-02-15T10:43:30;15.80;99.90
44229;DHT22;29904;51.058;5.378;2024-02-15T10:45:55;15.80;99.90
44229;DHT22;29904;51.058;5.378;2024-02-15T10:48:21;15.90;99.90
44229;DHT22;29904;51.058;5.378;2024-02-15T10:50:47;15.90;99.90
44229;DHT22;29904;51.058;5.378;2024-02-15T10:58:16;16.10;99.90
44229;DHT22;29904;51.058;5.378;2024-02-15T11:00:42;16.20;99.90
44229;DHT22;29904;51.058;5.378;2024-02-15T11:03:10;16.30;99.90
44229;DHT22;29904;51.058;5.378;2024-02-15T11:05:39;16.40;99.90
44229;DHT22;29904;51.058;5.378;2024-02-15T11:08:06;16.50;99.90
44229;DHT22;29904;51.058;5.378;2024-02-15T11:10:36;16.50;99.90
44229;DHT22;29904;51.058;5.378;2024-02-15T11:13:02;16.60;99.90
44229;DHT22;29904;51.058;5.378;2024-02-15T11:15:44;16.70;99.90
44229;DHT22;29904;51.058;5.378;2024-02-15T11:21:03;16.70;99.90
44229;DHT22;29904;51.058;5.378;2024-02-15T11:23:29;16.60;99.90
44229;DHT22;29904;51.058;5.378;2024-02-15T11:25:55;16.60;99.90
44229;DHT22;29904;51.058;5.378;2024-02-15T11:30:52;16.60;99.90
44229;DHT22;29904;51.058;5.378;2024-02-15T11:33:28;16.70;99.90
44229;DHT22;29904;51.058;5.378;2024-02-15T11:38:33;16.70;99.90
44229;DHT22;29904;51.058;5.378;2024-02-15T11:41:05;16.70;99.90
44229;DHT22;29904;51.058;5.378;2024-02-15T11:46:25;16.70;99.90
44229;DHT22;29904;51.058;5.378;2024-02-15T11:48:56;16.80;99.90
44229;DHT22;29904;51.058;5.378;2024-02-15T11:56:31;17.20;99.90
44229;DHT22;29904;51.058;5.378;2024-02-15T11:59:04;17.20;99.90
44229;DHT22;29904;51.058;5.378;2024-02-15T12:01:32;17.40;99.90
44229;DHT22;29904;51.058;5.378;2024-02-15T12:04:16;17.50;99.90
44229;DHT22;29904;51.058;5.378;2024-02-15T12:07:00;17.50;99.90
44229;DHT22;29904;51.058;5.378;2024-02-15T12:09:44;17.60;99.90
44229;DHT22;29904;51.058;5.378;2024-02-15T12:12:29;17.80;99.90
44229;DHT22;29904;51.058;5.378;2024-02-15T12:15:13;17.80;99.90
44229;DHT22;29904;51.058;5.378;2024-02-15T12:18:13;17.70;99.90
44229;DHT22;29904;51.058;5.378;2024-02-15T12:20:57;17.70;99.90
44229;DHT22;29904;51.058;5.378;2024-02-15T12:23:22;17.60;99.90
44229;DHT22;29904;51.058;5.378;2024-02-15T12:25:51;17.60;99.90
44229;DHT22;29904;51.058;5.378;2024-02-15T12:28:17;17.70;99.90
44229;DHT22;29904;51.058;5.378;2024-02-15T12:30:43;17.70;99.90
44229;DHT22;29904;51.058;5.378;2024-02-15T12:33:10;17.60;99.90
44229;DHT22;29904;51.058;5.378;2024-02-15T12:35:36;17.50;99.90
44229;DHT22;29904;51.058;5.378;2024-02-15T12:38:03;17.40;99.90
44229;DHT22;29904;51.058;5.378;2024-02-15T12:40:34;17.50;99.90
44229;DHT22;29904;51.058;5.378;2024-02-15T12:43:00;17.60;99.90
44229;DHT22;29904;51.058;5.378;2024-02-15T12:45:26;17.70;99.90
44229;DHT22;29904;51.058;5.378;2024-02-15T12:47:53;17.90;99.90
44229;DHT22;29904;51.058;5.378;2024-02-15T12:50:20;18.00;99.90
44229;DHT22;29904;51.058;5.378;2024-02-15T12:52:47;18.20;99.90
44229;DHT22;29904;51.058;5.378;2024-02-15T12:57:42;18.30;99.90
44229;DHT22;29904;51.058;5.378;2024-02-15T13:00:12;18.10;99.90
44229;DHT22;29904;51.058;5.378;2024-02-15T13:02:47;17.90;99.90
44229;DHT22;29904;51.058;5.378;2024-02-15T13:05:17;17.70;99.90
44229;DHT22;29904;51.058;5.378;2024-02-15T13:07:50;17.70;99.90
44229;DHT22;29904;51.058;5.378;2024-02-15T13:10:16;17.50;99.90
44229;DHT22;29904;51.058;5.378;2024-02-15T13:12:42;17.50;99.90
44229;DHT22;29904;51.058;5.378;2024-02-15T13:15:09;17.50;99.90
44229;DHT22;29904;51.058;5.378;2024-02-15T13:17:46;17.50;99.90
44229;DHT22;29904;51.058;5.378;2024-02-15T13:20:14;17.60;99.90
44229;DHT22;29904;51.058;5.378;2024-02-15T13:22:41;17.70;99.90
44229;DHT22;29904;51.058;5.378;2024-02-15T13:25:08;17.70;99.90
44229;DHT22;29904;51.058;5.378;2024-02-15T13:27:35;17.60;99.90
44229;DHT22;29904;51.058;5.378;2024-02-15T13:30:01;17.60;99.90
44229;DHT22;29904;51.058;5.378;2024-02-15T13:32:27;17.50;99.90
44229;DHT22;29904;51.058;5.378;2024-02-15T13:34:53;17.40;99.90
44229;DHT22;29904;51.058;5.378;2024-02-15T13:37:22;17.30;99.90
44229;DHT22;29904;51.058;5.378;2024-02-15T13:39:48;17.20;99.90
44229;DHT22;29904;51.058;5.378;2024-02-15T13:42:15;17.10;99.90
44229;DHT22;29904;51.058;5.378;2024-02-15T13:44:45;17.10;99.90
44229;DHT22;29904;51.058;5.378;2024-02-15T13:47:11;17.00;99.90
44229;DHT22;29904;51.058;5.378;2024-02-15T13:49:37;16.90;99.90
44229;DHT22;29904;51.058;5.378;2024-02-15T13:52:03;16.90;99.90
44229;DHT22;29904;51.058;5.378;2024-02-15T13:54:29;17.00;99.90
44229;DHT22;29904;51.058;5.378;2024-02-15T13:56:55;17.10;99.90
44229;DHT22;29904;51.058;5.378;2024-02-15T13:59:22;17.20;99.90
44229;DHT22;29904;51.058;5.378;2024-02-15T14:01:48;17.40;99.90
44229;DHT22;29904;51.058;5.378;2024-02-15T14:04:15;17.60;99.90
44229;DHT22;29904;51.058;5.378;2024-02-15T14:06:41;17.80;99.90
44229;DHT22;29904;51.058;5.378;2024-02-15T14:09:09;17.90;99.90
44229;DHT22;29904;51.058;5.378;2024-02-15T14:11:36;18.00;99.90
44229;DHT22;29904;51.058;5.378;2024-02-15T14:14:03;18.00;99.90
44229;DHT22;29904;51.058;5.378;2024-02-15T14:16:28;18.10;99.90
44229;DHT22;29904;51.058;5.378;2024-02-15T14:18:55;18.10;99.90
44229;DHT22;29904;51.058;5.378;2024-02-15T14:21:22;18.10;99.90
44229;DHT22;29904;51.058;5.378;2024-02-15T14:23:47;18.10;99.90
44229;DHT22;29904;51.058;5.378;2024-02-15T14:26:13;18.30;99.90
44229;DHT22;29904;51.058;5.378;2024-02-15T14:28:38;18.30;99.90
44229;DHT22;29904;51.058;5.378;2024-02-15T14:31:07;18.20;99.90
44229;DHT22;29904;51.058;5.378;2024-02-15T14:33:52;18.20;99.90
44229;DHT22;29904;51.058;5.378;2024-02-15T14:36:17;18.20;99.90
44229;DHT22;29904;51.058;5.378;2024-02-15T14:38:43;18.30;99.90
44229;DHT22;29904;51.058;5.378;2024-02-15T14:41:09;18.40;99.90
44229;DHT22;29904;51.058;5.378;2024-02-15T14:43:36;18.40;99.90
44229;DHT22;29904;51.058;5.378;2024-02-15T14:46:02;18.40;99.90
44229;DHT22;29904;51.058;5.378;2024-02-15T14:48:33;18.40;99.90
44229;DHT22;29904;51.058;5.378;2024-02-15T14:50:59;18.50;99.90
44229;DHT22;29904;51.058;5.378;2024-02-15T14:53:26;18.40;99.90
44229;DHT22;29904;51.058;5.378;2024-02-15T14:55:52;18.40;99.90
44229;DHT22;29904;51.058;5.378;2024-02-15T14:58:19;18.40;99.90
44229;DHT22;29904;51.058;5.378;2024-02-15T15:00:45;18.40;99.90
44229;DHT22;29904;51.058;5.378;2024-02-15T15:03:11;18.40;99.90
44229;DHT22;29904;51.058;5.378;2024-02-15T15:05:40;18.50;99.90
44229;DHT22;29904;51.058;5.378;2024-02-15T15:08:24;18.60;99.90
44229;DHT22;29904;51.058;5.378;2024-02-15T15:11:08;18.70;99.90
44229;DHT22;29904;51.058;5.378;2024-02-15T15:13:52;18.70;99.90
44229;DHT22;29904;51.058;5.378;2024-02-15T15:16:18;18.70;99.90
44229;DHT22;29904;51.058;5.378;2024-02-15T15:18:48;18.50;99.90
44229;DHT22;29904;51.058;5.378;2024-02-15T15:21:17;18.30;99.90
44229;DHT22;29904;51.058;5.378;2024-02-15T15:23:43;18.10;99.90
44229;DHT22;29904;51.058;5.378;2024-02-15T15:26:09;18.00;99.90
44229;DHT22;29904;51.058;5.378;2024-02-15T15:28:38;17.80;99.90
44229;DHT22;29904;51.058;5.378;2024-02-15T15:31:04;17.60;99.90
44229;DHT22;29904;51.058;5.378;2024-02-15T15:33:30;17.50;99.90
44229;DHT22;29904;51.058;5.378;2024-02-15T15:35:58;17.40;99.90
44229;DHT22;29904;51.058;5.378;2024-02-15T15:38:24;17.20;99.90
44229;DHT22;29904;51.058;5.378;2024-02-15T15:40:52;17.10;99.90
44229;DHT22;29904;51.058;5.378;2024-02-15T15:43:18;16.90;99.90
44229;DHT22;29904;51.058;5.378;2024-02-15T15:45:45;16.80;99.90
44229;DHT22;29904;51.058;5.378;2024-02-15T15:48:10;16.70;99.90
44229;DHT22;29904;51.058;5.378;2024-02-15T15:50:37;16.50;99.90
44229;DHT22;29904;51.058;5.378;2024-02-15T15:53:03;16.40;99.90
44229;DHT22;29904;51.058;5.378;2024-02-15T15:55:29;16.30;99.90